Maplewood, Missouri
Current Conditions -  °F | °C
As of 8:05 AM on Friday 24 Oct 2014 (Local Time) from KCPS Reporting Station
Overcast Overcast  
Wind Chill: 54°   Ceiling: 800
Heat Index: 54°   Visibility: 10mi
Dew Point: 50°   Wind: 6mph
Humidity: 86%   Direction: 220°SW
Pressure: 30.11"   Gusts: NA
Location:  38.6118°N, 90.3192°W
Report Text: KCPS 241305Z 22005KT 10SM OVC008 12/10 A3011 RMK AO2 CIG 005V011 T01220100
Loading
Personal Weather Stations






























Interactive Weather Map
Tropical Storm Tracking
New forecast layout! Learn more

10-Day Weather Forecast

Advertisements
Track Severe Weather on mobile